Terminal Aerodrome Forecast
Issued by NWS

Home | Current Version | Previous Version | Text Only | Print | Product List | Glossary On
Versions: 1 2 3 4 5 6 7 8 9 10 11 12 13 14 15 16 17 18 19 20 21 22 23 24 25 26 27 28 29 30 31 32 33 34 35 36 37 38 39 40 41 42 43 44
000
FTUS45 KTWC 301140
TAFOLS
TAF
KOLS 301140Z 3012/0112 VRB04KT P6SM VCTS SCT090CB SCT200
     FM301800 26010KT P6SM FEW080 SCT200
     FM302000 30010KT P6SM VCTS SCT090CB SCT140
     FM010000 05009KT P6SM VCSH SCT090 BKN140
     FM010600 14006KT P6SM SCT080 SCT120=

USA.gov is the U.S. government's official web portal to all federal, state and local government web resources and services.